sensor_id;sensor_type;location;lat;lon;timestamp;P1;durP1;ratioP1;P2;durP2;ratioP2
68812;SDS011;55808;48.112;11.552;2022-10-16T00:00:34;78.13;;;70.10;;
68812;SDS011;55808;48.112;11.552;2022-10-16T00:03:01;75.47;;;68.53;;
68812;SDS011;55808;48.112;11.552;2022-10-16T00:05:27;73.97;;;68.00;;
68812;SDS011;55808;48.112;11.552;2022-10-16T00:07:54;75.80;;;69.37;;
68812;SDS011;55808;48.112;11.552;2022-10-16T00:10:20;76.57;;;69.53;;
68812;SDS011;55808;48.112;11.552;2022-10-16T00:12:46;75.43;;;68.60;;
68812;SDS011;55808;48.112;11.552;2022-10-16T00:15:11;73.30;;;67.37;;
68812;SDS011;55808;48.112;11.552;2022-10-16T00:17:38;71.67;;;66.33;;
68812;SDS011;55808;48.112;11.552;2022-10-16T00:20:05;75.97;;;69.67;;
68812;SDS011;55808;48.112;11.552;2022-10-16T00:22:31;70.17;;;65.43;;
68812;SDS011;55808;48.112;11.552;2022-10-16T00:24:57;72.97;;;67.50;;
68812;SDS011;55808;48.112;11.552;2022-10-16T00:27:23;69.97;;;65.03;;
68812;SDS011;55808;48.112;11.552;2022-10-16T00:29:51;71.43;;;66.50;;
68812;SDS011;55808;48.112;11.552;2022-10-16T00:32:18;73.20;;;67.67;;
68812;SDS011;55808;48.112;11.552;2022-10-16T00:34:45;70.80;;;65.70;;
68812;SDS011;55808;48.112;11.552;2022-10-16T00:37:11;72.50;;;66.50;;
68812;SDS011;55808;48.112;11.552;2022-10-16T00:39:37;69.40;;;64.77;;
68812;SDS011;55808;48.112;11.552;2022-10-16T00:42:02;70.93;;;65.93;;
68812;SDS011;55808;48.112;11.552;2022-10-16T00:47:12;70.90;;;66.10;;
68812;SDS011;55808;48.112;11.552;2022-10-16T00:49:47;71.60;;;66.67;;
68812;SDS011;55808;48.112;11.552;2022-10-16T00:52:15;70.60;;;66.27;;
68812;SDS011;55808;48.112;11.552;2022-10-16T00:54:42;69.87;;;65.60;;
68812;SDS011;55808;48.112;11.552;2022-10-16T00:57:08;72.23;;;66.40;;
68812;SDS011;55808;48.112;11.552;2022-10-16T00:59:35;71.10;;;66.07;;
68812;SDS011;55808;48.112;11.552;2022-10-16T01:02:03;71.27;;;66.43;;
68812;SDS011;55808;48.112;11.552;2022-10-16T01:04:35;73.73;;;67.60;;
68812;SDS011;55808;48.112;11.552;2022-10-16T01:12:05;69.50;;;64.70;;
68812;SDS011;55808;48.112;11.552;2022-10-16T01:14:45;69.90;;;64.77;;
68812;SDS011;55808;48.112;11.552;2022-10-16T01:17:12;71.30;;;66.23;;
68812;SDS011;55808;48.112;11.552;2022-10-16T01:22:34;68.73;;;64.13;;
68812;SDS011;55808;48.112;11.552;2022-10-16T01:25:05;72.80;;;66.90;;
68812;SDS011;55808;48.112;11.552;2022-10-16T01:27:36;71.00;;;65.90;;
68812;SDS011;55808;48.112;11.552;2022-10-16T01:30:15;73.93;;;67.47;;
68812;SDS011;55808;48.112;11.552;2022-10-16T01:35:27;70.93;;;65.47;;
68812;SDS011;55808;48.112;11.552;2022-10-16T01:40:36;70.93;;;65.30;;
68812;SDS011;55808;48.112;11.552;2022-10-16T01:43:24;69.93;;;65.17;;
68812;SDS011;55808;48.112;11.552;2022-10-16T01:45:53;67.63;;;63.30;;
68812;SDS011;55808;48.112;11.552;2022-10-16T01:48:20;71.03;;;65.90;;
68812;SDS011;55808;48.112;11.552;2022-10-16T01:50:59;69.73;;;64.63;;
68812;SDS011;55808;48.112;11.552;2022-10-16T01:53:29;71.90;;;66.00;;
68812;SDS011;55808;48.112;11.552;2022-10-16T01:55:57;70.60;;;65.37;;
68812;SDS011;55808;48.112;11.552;2022-10-16T01:58:24;69.60;;;64.60;;
68812;SDS011;55808;48.112;11.552;2022-10-16T02:00:52;68.20;;;63.60;;
68812;SDS011;55808;48.112;11.552;2022-10-16T02:03:19;67.70;;;62.70;;
68812;SDS011;55808;48.112;11.552;2022-10-16T02:05:47;66.30;;;62.47;;
68812;SDS011;55808;48.112;11.552;2022-10-16T02:08:22;66.77;;;62.40;;
68812;SDS011;55808;48.112;11.552;2022-10-16T02:10:50;68.93;;;63.90;;
68812;SDS011;55808;48.112;11.552;2022-10-16T02:13:22;69.83;;;64.80;;
68812;SDS011;55808;48.112;11.552;2022-10-16T02:15:52;66.60;;;62.63;;
68812;SDS011;55808;48.112;11.552;2022-10-16T02:18:18;70.63;;;64.87;;
68812;SDS011;55808;48.112;11.552;2022-10-16T02:20:51;70.30;;;64.37;;
68812;SDS011;55808;48.112;11.552;2022-10-16T02:23:27;67.70;;;63.40;;
68812;SDS011;55808;48.112;11.552;2022-10-16T02:26:02;69.23;;;64.23;;
68812;SDS011;55808;48.112;11.552;2022-10-16T02:28:35;64.93;;;61.53;;
68812;SDS011;55808;48.112;11.552;2022-10-16T02:31:10;67.93;;;63.13;;
68812;SDS011;55808;48.112;11.552;2022-10-16T02:33:38;72.83;;;65.60;;
68812;SDS011;55808;48.112;11.552;2022-10-16T02:36:07;69.07;;;63.70;;
68812;SDS011;55808;48.112;11.552;2022-10-16T02:38:33;67.17;;;63.07;;
68812;SDS011;55808;48.112;11.552;2022-10-16T02:40:59;69.43;;;63.87;;
68812;SDS011;55808;48.112;11.552;2022-10-16T02:43:25;65.93;;;61.87;;
68812;SDS011;55808;48.112;11.552;2022-10-16T02:45:51;65.60;;;61.83;;
68812;SDS011;55808;48.112;11.552;2022-10-16T02:48:17;69.00;;;63.77;;
68812;SDS011;55808;48.112;11.552;2022-10-16T02:50:42;67.70;;;62.73;;
68812;SDS011;55808;48.112;11.552;2022-10-16T02:53:08;69.97;;;64.50;;
68812;SDS011;55808;48.112;11.552;2022-10-16T02:55:33;67.07;;;62.33;;
68812;SDS011;55808;48.112;11.552;2022-10-16T02:57:59;68.07;;;63.50;;
68812;SDS011;55808;48.112;11.552;2022-10-16T03:00:24;69.23;;;64.23;;
68812;SDS011;55808;48.112;11.552;2022-10-16T03:02:50;65.67;;;61.90;;
68812;SDS011;55808;48.112;11.552;2022-10-16T03:05:16;66.07;;;62.23;;
68812;SDS011;55808;48.112;11.552;2022-10-16T03:07:42;68.70;;;63.87;;
68812;SDS011;55808;48.112;11.552;2022-10-16T03:10:07;63.90;;;60.80;;
68812;SDS011;55808;48.112;11.552;2022-10-16T03:12:34;64.77;;;61.40;;
68812;SDS011;55808;48.112;11.552;2022-10-16T03:14:59;64.70;;;61.13;;
68812;SDS011;55808;48.112;11.552;2022-10-16T03:17:25;64.57;;;61.20;;
68812;SDS011;55808;48.112;11.552;2022-10-16T03:19:51;66.80;;;62.47;;
68812;SDS011;55808;48.112;11.552;2022-10-16T03:22:16;66.17;;;62.50;;
68812;SDS011;55808;48.112;11.552;2022-10-16T03:24:42;66.90;;;62.60;;
68812;SDS011;55808;48.112;11.552;2022-10-16T03:27:08;65.30;;;61.20;;
68812;SDS011;55808;48.112;11.552;2022-10-16T03:29:33;66.40;;;62.50;;
68812;SDS011;55808;48.112;11.552;2022-10-16T03:31:59;66.83;;;62.60;;
68812;SDS011;55808;48.112;11.552;2022-10-16T03:34:25;65.63;;;61.83;;
68812;SDS011;55808;48.112;11.552;2022-10-16T03:36:51;65.70;;;62.00;;
68812;SDS011;55808;48.112;11.552;2022-10-16T03:39:17;67.97;;;63.40;;
68812;SDS011;55808;48.112;11.552;2022-10-16T03:41:43;65.90;;;62.40;;
68812;SDS011;55808;48.112;11.552;2022-10-16T03:44:08;65.17;;;61.63;;
68812;SDS011;55808;48.112;11.552;2022-10-16T03:46:34;69.37;;;63.80;;
68812;SDS011;55808;48.112;11.552;2022-10-16T03:49:00;65.17;;;62.07;;
68812;SDS011;55808;48.112;11.552;2022-10-16T03:51:25;66.80;;;62.60;;
68812;SDS011;55808;48.112;11.552;2022-10-16T03:53:51;65.20;;;61.77;;
68812;SDS011;55808;48.112;11.552;2022-10-16T03:56:17;66.00;;;62.33;;
68812;SDS011;55808;48.112;11.552;2022-10-16T03:58:42;66.83;;;63.00;;
68812;SDS011;55808;48.112;11.552;2022-10-16T04:01:08;68.47;;;63.90;;
68812;SDS011;55808;48.112;11.552;2022-10-16T04:03:34;69.57;;;64.30;;
68812;SDS011;55808;48.112;11.552;2022-10-16T04:05:59;66.27;;;62.37;;
68812;SDS011;55808;48.112;11.552;2022-10-16T04:08:25;65.27;;;61.87;;
68812;SDS011;55808;48.112;11.552;2022-10-16T04:10:50;67.97;;;63.37;;
68812;SDS011;55808;48.112;11.552;2022-10-16T04:13:16;66.97;;;63.23;;
68812;SDS011;55808;48.112;11.552;2022-10-16T04:15:42;67.63;;;63.80;;
68812;SDS011;55808;48.112;11.552;2022-10-16T04:18:09;65.13;;;61.77;;
68812;SDS011;55808;48.112;11.552;2022-10-16T04:20:35;66.50;;;63.03;;
68812;SDS011;55808;48.112;11.552;2022-10-16T04:23:00;67.50;;;63.37;;
68812;SDS011;55808;48.112;11.552;2022-10-16T04:25:26;64.53;;;61.43;;
68812;SDS011;55808;48.112;11.552;2022-10-16T04:27:54;66.03;;;63.03;;
68812;SDS011;55808;48.112;11.552;2022-10-16T04:30:20;67.90;;;64.17;;
68812;SDS011;55808;48.112;11.552;2022-10-16T04:32:50;68.53;;;64.70;;
68812;SDS011;55808;48.112;11.552;2022-10-16T04:35:19;67.87;;;64.00;;
68812;SDS011;55808;48.112;11.552;2022-10-16T04:37:46;67.23;;;63.50;;
68812;SDS011;55808;48.112;11.552;2022-10-16T04:40:12;65.77;;;62.30;;
68812;SDS011;55808;48.112;11.552;2022-10-16T04:42:38;69.73;;;64.90;;
68812;SDS011;55808;48.112;11.552;2022-10-16T04:45:04;67.37;;;63.73;;
68812;SDS011;55808;48.112;11.552;2022-10-16T04:47:30;66.30;;;62.60;;
68812;SDS011;55808;48.112;11.552;2022-10-16T04:49:56;65.07;;;61.97;;
68812;SDS011;55808;48.112;11.552;2022-10-16T04:52:22;66.30;;;63.00;;
68812;SDS011;55808;48.112;11.552;2022-10-16T04:54:49;68.47;;;64.70;;
68812;SDS011;55808;48.112;11.552;2022-10-16T04:57:15;67.33;;;63.53;;
68812;SDS011;55808;48.112;11.552;2022-10-16T04:59:41;68.33;;;64.37;;
68812;SDS011;55808;48.112;11.552;2022-10-16T05:02:07;70.30;;;65.70;;
68812;SDS011;55808;48.112;11.552;2022-10-16T05:04:33;66.40;;;63.00;;
68812;SDS011;55808;48.112;11.552;2022-10-16T05:06:59;68.17;;;64.57;;
68812;SDS011;55808;48.112;11.552;2022-10-16T05:09:24;68.50;;;64.60;;
68812;SDS011;55808;48.112;11.552;2022-10-16T05:11:50;68.67;;;64.83;;
68812;SDS011;55808;48.112;11.552;2022-10-16T05:14:15;68.10;;;64.80;;
68812;SDS011;55808;48.112;11.552;2022-10-16T05:16:41;67.53;;;63.80;;
68812;SDS011;55808;48.112;11.552;2022-10-16T05:19:07;68.10;;;64.23;;
68812;SDS011;55808;48.112;11.552;2022-10-16T05:21:32;71.83;;;65.73;;
68812;SDS011;55808;48.112;11.552;2022-10-16T05:23:58;67.87;;;64.13;;
68812;SDS011;55808;48.112;11.552;2022-10-16T05:26:24;66.67;;;63.47;;
68812;SDS011;55808;48.112;11.552;2022-10-16T05:28:49;67.53;;;63.80;;
68812;SDS011;55808;48.112;11.552;2022-10-16T05:31:15;70.67;;;65.70;;
68812;SDS011;55808;48.112;11.552;2022-10-16T05:33:41;72.37;;;67.17;;
68812;SDS011;55808;48.112;11.552;2022-10-16T05:36:08;76.40;;;69.37;;
68812;SDS011;55808;48.112;11.552;2022-10-16T05:38:34;67.70;;;64.10;;
68812;SDS011;55808;48.112;11.552;2022-10-16T05:41:01;67.53;;;63.50;;
68812;SDS011;55808;48.112;11.552;2022-10-16T05:43:28;69.17;;;65.07;;
68812;SDS011;55808;48.112;11.552;2022-10-16T05:45:57;66.63;;;63.23;;
68812;SDS011;55808;48.112;11.552;2022-10-16T05:48:27;69.30;;;65.30;;
68812;SDS011;55808;48.112;11.552;2022-10-16T05:50:59;69.80;;;65.40;;
68812;SDS011;55808;48.112;11.552;2022-10-16T05:53:31;70.90;;;65.87;;
68812;SDS011;55808;48.112;11.552;2022-10-16T05:55:58;67.07;;;63.67;;
68812;SDS011;55808;48.112;11.552;2022-10-16T05:58:24;68.30;;;64.60;;
68812;SDS011;55808;48.112;11.552;2022-10-16T06:00:57;69.20;;;65.07;;
68812;SDS011;55808;48.112;11.552;2022-10-16T06:03:29;72.00;;;67.00;;
68812;SDS011;55808;48.112;11.552;2022-10-16T06:05:55;66.97;;;63.70;;
68812;SDS011;55808;48.112;11.552;2022-10-16T06:08:21;69.53;;;65.40;;
68812;SDS011;55808;48.112;11.552;2022-10-16T06:10:48;70.63;;;66.60;;
68812;SDS011;55808;48.112;11.552;2022-10-16T06:13:24;67.37;;;63.40;;
68812;SDS011;55808;48.112;11.552;2022-10-16T06:15:50;69.80;;;65.30;;
68812;SDS011;55808;48.112;11.552;2022-10-16T06:18:15;66.43;;;63.10;;
68812;SDS011;55808;48.112;11.552;2022-10-16T06:20:41;68.97;;;64.57;;
68812;SDS011;55808;48.112;11.552;2022-10-16T06:23:07;70.13;;;65.63;;
68812;SDS011;55808;48.112;11.552;2022-10-16T06:25:32;67.23;;;63.47;;
68812;SDS011;55808;48.112;11.552;2022-10-16T06:27:59;71.10;;;65.90;;
68812;SDS011;55808;48.112;11.552;2022-10-16T06:30:24;65.67;;;62.33;;
68812;SDS011;55808;48.112;11.552;2022-10-16T06:32:50;66.80;;;63.17;;
68812;SDS011;55808;48.112;11.552;2022-10-16T06:35:16;69.60;;;65.10;;
68812;SDS011;55808;48.112;11.552;2022-10-16T06:37:41;65.27;;;61.90;;
68812;SDS011;55808;48.112;11.552;2022-10-16T06:40:07;67.93;;;64.13;;
68812;SDS011;55808;48.112;11.552;2022-10-16T06:42:33;66.57;;;62.53;;
68812;SDS011;55808;48.112;11.552;2022-10-16T06:44:58;65.60;;;62.50;;
68812;SDS011;55808;48.112;11.552;2022-10-16T06:47:24;69.43;;;64.83;;
68812;SDS011;55808;48.112;11.552;2022-10-16T06:49:50;65.33;;;62.13;;
68812;SDS011;55808;48.112;11.552;2022-10-16T06:52:15;68.67;;;64.80;;
68812;SDS011;55808;48.112;11.552;2022-10-16T06:54:44;68.67;;;64.57;;
68812;SDS011;55808;48.112;11.552;2022-10-16T06:57:09;66.97;;;63.37;;
68812;SDS011;55808;48.112;11.552;2022-10-16T06:59:35;67.93;;;64.00;;
68812;SDS011;55808;48.112;11.552;2022-10-16T07:02:00;67.13;;;63.60;;
68812;SDS011;55808;48.112;11.552;2022-10-16T07:04:26;69.50;;;64.70;;
68812;SDS011;55808;48.112;11.552;2022-10-16T07:06:51;70.23;;;65.00;;
68812;SDS011;55808;48.112;11.552;2022-10-16T07:09:17;65.47;;;62.17;;
68812;SDS011;55808;48.112;11.552;2022-10-16T07:11:43;65.90;;;62.53;;
68812;SDS011;55808;48.112;11.552;2022-10-16T07:14:18;68.50;;;64.30;;
68812;SDS011;55808;48.112;11.552;2022-10-16T07:16:45;67.87;;;64.13;;
68812;SDS011;55808;48.112;11.552;2022-10-16T07:19:12;67.67;;;64.37;;
68812;SDS011;55808;48.112;11.552;2022-10-16T07:21:40;65.10;;;61.70;;
68812;SDS011;55808;48.112;11.552;2022-10-16T07:24:09;67.00;;;63.30;;
68812;SDS011;55808;48.112;11.552;2022-10-16T07:26:37;66.13;;;62.67;;
68812;SDS011;55808;48.112;11.552;2022-10-16T07:29:11;67.23;;;63.43;;
68812;SDS011;55808;48.112;11.552;2022-10-16T07:31:39;66.30;;;62.90;;
68812;SDS011;55808;48.112;11.552;2022-10-16T07:34:05;70.23;;;64.80;;
68812;SDS011;55808;48.112;11.552;2022-10-16T07:36:31;69.50;;;65.17;;
68812;SDS011;55808;48.112;11.552;2022-10-16T07:38:56;66.80;;;63.10;;
68812;SDS011;55808;48.112;11.552;2022-10-16T07:41:22;68.50;;;64.90;;
68812;SDS011;55808;48.112;11.552;2022-10-16T07:43:49;67.27;;;63.37;;
68812;SDS011;55808;48.112;11.552;2022-10-16T07:46:16;68.70;;;64.37;;
68812;SDS011;55808;48.112;11.552;2022-10-16T07:48:43;69.73;;;65.17;;
68812;SDS011;55808;48.112;11.552;2022-10-16T07:51:12;72.43;;;66.23;;
68812;SDS011;55808;48.112;11.552;2022-10-16T07:53:39;70.17;;;65.83;;
68812;SDS011;55808;48.112;11.552;2022-10-16T07:56:05;70.70;;;66.13;;
68812;SDS011;55808;48.112;11.552;2022-10-16T07:58:32;69.33;;;64.90;;
68812;SDS011;55808;48.112;11.552;2022-10-16T08:01:02;72.03;;;66.70;;
68812;SDS011;55808;48.112;11.552;2022-10-16T08:03:30;69.57;;;64.77;;
68812;SDS011;55808;48.112;11.552;2022-10-16T08:05:56;68.63;;;64.77;;
68812;SDS011;55808;48.112;11.552;2022-10-16T08:08:22;69.80;;;65.77;;
68812;SDS011;55808;48.112;11.552;2022-10-16T08:10:48;69.10;;;64.80;;
68812;SDS011;55808;48.112;11.552;2022-10-16T08:13:13;69.50;;;64.97;;
68812;SDS011;55808;48.112;11.552;2022-10-16T08:15:40;68.80;;;64.87;;
68812;SDS011;55808;48.112;11.552;2022-10-16T08:18:10;71.53;;;67.17;;
68812;SDS011;55808;48.112;11.552;2022-10-16T08:20:36;71.20;;;66.80;;
68812;SDS011;55808;48.112;11.552;2022-10-16T08:23:02;77.13;;;71.20;;
68812;SDS011;55808;48.112;11.552;2022-10-16T08:25:28;72.23;;;67.60;;
68812;SDS011;55808;48.112;11.552;2022-10-16T08:27:55;70.77;;;66.07;;
68812;SDS011;55808;48.112;11.552;2022-10-16T08:30:21;71.10;;;66.70;;
68812;SDS011;55808;48.112;11.552;2022-10-16T08:32:47;70.63;;;66.13;;
68812;SDS011;55808;48.112;11.552;2022-10-16T08:35:13;68.70;;;64.83;;
68812;SDS011;55808;48.112;11.552;2022-10-16T08:37:40;72.63;;;67.83;;
68812;SDS011;55808;48.112;11.552;2022-10-16T08:40:06;70.93;;;66.73;;
68812;SDS011;55808;48.112;11.552;2022-10-16T08:48:30;73.67;;;68.07;;
68812;SDS011;55808;48.112;11.552;2022-10-16T08:51:17;74.17;;;68.07;;
68812;SDS011;55808;48.112;11.552;2022-10-16T08:56:21;72.50;;;67.03;;
68812;SDS011;55808;48.112;11.552;2022-10-16T08:58:47;70.57;;;66.37;;
68812;SDS011;55808;48.112;11.552;2022-10-16T09:01:15;72.17;;;67.07;;
68812;SDS011;55808;48.112;11.552;2022-10-16T09:17:26;68.40;;;65.20;;
68812;SDS011;55808;48.112;11.552;2022-10-16T09:25:53;72.40;;;67.47;;
68812;SDS011;55808;48.112;11.552;2022-10-16T09:28:20;72.53;;;68.00;;
68812;SDS011;55808;48.112;11.552;2022-10-16T09:30:46;70.90;;;66.90;;
68812;SDS011;55808;48.112;11.552;2022-10-16T09:33:16;72.07;;;67.97;;
68812;SDS011;55808;48.112;11.552;2022-10-16T09:35:45;71.53;;;66.93;;
68812;SDS011;55808;48.112;11.552;2022-10-16T09:38:22;75.90;;;69.93;;
68812;SDS011;55808;48.112;11.552;2022-10-16T09:40:53;75.90;;;70.10;;
68812;SDS011;55808;48.112;11.552;2022-10-16T09:43:22;74.27;;;69.43;;
68812;SDS011;55808;48.112;11.552;2022-10-16T09:48:58;76.57;;;71.07;;
68812;SDS011;55808;48.112;11.552;2022-10-16T09:51:27;71.60;;;67.57;;
68812;SDS011;55808;48.112;11.552;2022-10-16T09:54:00;71.03;;;67.40;;
68812;SDS011;55808;48.112;11.552;2022-10-16T09:56:37;71.27;;;67.63;;
68812;SDS011;55808;48.112;11.552;2022-10-16T09:59:10;71.90;;;68.07;;
68812;SDS011;55808;48.112;11.552;2022-10-16T10:01:37;71.43;;;67.70;;
68812;SDS011;55808;48.112;11.552;2022-10-16T10:04:14;74.13;;;68.60;;
68812;SDS011;55808;48.112;11.552;2022-10-16T10:06:43;70.80;;;67.40;;
68812;SDS011;55808;48.112;11.552;2022-10-16T10:11:46;78.07;;;71.17;;
68812;SDS011;55808;48.112;11.552;2022-10-16T10:14:25;73.93;;;69.17;;
68812;SDS011;55808;48.112;11.552;2022-10-16T10:30:18;70.30;;;66.83;;
68812;SDS011;55808;48.112;11.552;2022-10-16T10:35:22;73.10;;;69.40;;
68812;SDS011;55808;48.112;11.552;2022-10-16T10:41:32;75.47;;;70.23;;
68812;SDS011;55808;48.112;11.552;2022-10-16T10:46:08;74.30;;;70.60;;
68812;SDS011;55808;48.112;11.552;2022-10-16T10:48:53;79.13;;;74.17;;
68812;SDS011;55808;48.112;11.552;2022-10-16T10:54:32;77.47;;;73.23;;
68812;SDS011;55808;48.112;11.552;2022-10-16T10:57:23;75.53;;;71.90;;
68812;SDS011;55808;48.112;11.552;2022-10-16T11:00:03;79.20;;;74.50;;
68812;SDS011;55808;48.112;11.552;2022-10-16T11:02:41;75.63;;;72.07;;
68812;SDS011;55808;48.112;11.552;2022-10-16T11:11:16;78.67;;;74.57;;
68812;SDS011;55808;48.112;11.552;2022-10-16T11:13:57;78.23;;;74.10;;
68812;SDS011;55808;48.112;11.552;2022-10-16T11:22:26;81.27;;;75.47;;
68812;SDS011;55808;48.112;11.552;2022-10-16T11:27:51;80.33;;;75.70;;
68812;SDS011;55808;48.112;11.552;2022-10-16T11:30:27;80.00;;;74.80;;
68812;SDS011;55808;48.112;11.552;2022-10-16T11:41:35;77.53;;;73.23;;
68812;SDS011;55808;48.112;11.552;2022-10-16T11:44:14;78.07;;;73.90;;
68812;SDS011;55808;48.112;11.552;2022-10-16T11:46:43;76.07;;;72.07;;
68812;SDS011;55808;48.112;11.552;2022-10-16T11:49:14;75.60;;;72.20;;
68812;SDS011;55808;48.112;11.552;2022-10-16T11:51:48;79.23;;;74.57;;
68812;SDS011;55808;48.112;11.552;2022-10-16T11:54:48;75.97;;;72.17;;
68812;SDS011;55808;48.112;11.552;2022-10-16T11:57:27;75.90;;;72.20;;
68812;SDS011;55808;48.112;11.552;2022-10-16T11:59:58;78.17;;;73.27;;
68812;SDS011;55808;48.112;11.552;2022-10-16T12:02:44;74.87;;;71.33;;
68812;SDS011;55808;48.112;11.552;2022-10-16T12:08:00;77.77;;;73.50;;
68812;SDS011;55808;48.112;11.552;2022-10-16T12:10:28;83.57;;;76.37;;
68812;SDS011;55808;48.112;11.552;2022-10-16T12:12:56;80.00;;;74.70;;
68812;SDS011;55808;48.112;11.552;2022-10-16T12:17:48;80.43;;;74.73;;
68812;SDS011;55808;48.112;11.552;2022-10-16T12:20:19;80.07;;;75.40;;
68812;SDS011;55808;48.112;11.552;2022-10-16T12:23:16;75.53;;;71.87;;
68812;SDS011;55808;48.112;11.552;2022-10-16T12:25:53;76.70;;;72.43;;
68812;SDS011;55808;48.112;11.552;2022-10-16T12:28:30;76.03;;;72.20;;
68812;SDS011;55808;48.112;11.552;2022-10-16T12:31:01;75.80;;;72.13;;
68812;SDS011;55808;48.112;11.552;2022-10-16T12:33:36;78.47;;;73.80;;
68812;SDS011;55808;48.112;11.552;2022-10-16T12:36:13;78.03;;;73.47;;
68812;SDS011;55808;48.112;11.552;2022-10-16T12:38:51;79.07;;;75.07;;
68812;SDS011;55808;48.112;11.552;2022-10-16T12:41:25;78.50;;;73.77;;
68812;SDS011;55808;48.112;11.552;2022-10-16T12:43:51;77.77;;;73.63;;
68812;SDS011;55808;48.112;11.552;2022-10-16T12:48:43;81.20;;;75.33;;
68812;SDS011;55808;48.112;11.552;2022-10-16T12:51:11;78.60;;;74.40;;
68812;SDS011;55808;48.112;11.552;2022-10-16T12:53:46;77.37;;;72.70;;
68812;SDS011;55808;48.112;11.552;2022-10-16T13:07:50;74.90;;;70.57;;
68812;SDS011;55808;48.112;11.552;2022-10-16T13:13:14;74.13;;;70.83;;
68812;SDS011;55808;48.112;11.552;2022-10-16T13:27:07;68.73;;;65.03;;
68812;SDS011;55808;48.112;11.552;2022-10-16T13:29:43;68.30;;;65.10;;
68812;SDS011;55808;48.112;11.552;2022-10-16T13:32:09;69.20;;;65.90;;
68812;SDS011;55808;48.112;11.552;2022-10-16T13:34:44;74.93;;;69.90;;
68812;SDS011;55808;48.112;11.552;2022-10-16T13:37:18;68.63;;;65.40;;
68812;SDS011;55808;48.112;11.552;2022-10-16T13:39:47;75.90;;;70.93;;
68812;SDS011;55808;48.112;11.552;2022-10-16T13:44:52;70.67;;;67.23;;
68812;SDS011;55808;48.112;11.552;2022-10-16T13:49:59;73.30;;;68.83;;
68812;SDS011;55808;48.112;11.552;2022-10-16T13:52:25;72.30;;;68.30;;
68812;SDS011;55808;48.112;11.552;2022-10-16T13:54:51;72.10;;;68.30;;
68812;SDS011;55808;48.112;11.552;2022-10-16T13:57:17;73.20;;;68.50;;
68812;SDS011;55808;48.112;11.552;2022-10-16T13:59:43;70.03;;;67.03;;
68812;SDS011;55808;48.112;11.552;2022-10-16T14:02:18;71.03;;;67.67;;
68812;SDS011;55808;48.112;11.552;2022-10-16T14:04:54;70.80;;;67.27;;
68812;SDS011;55808;48.112;11.552;2022-10-16T14:07:23;69.67;;;66.13;;
68812;SDS011;55808;48.112;11.552;2022-10-16T14:09:54;71.70;;;67.90;;
68812;SDS011;55808;48.112;11.552;2022-10-16T14:12:20;70.83;;;66.87;;
68812;SDS011;55808;48.112;11.552;2022-10-16T14:14:48;71.07;;;67.27;;
68812;SDS011;55808;48.112;11.552;2022-10-16T14:17:18;70.97;;;67.37;;
68812;SDS011;55808;48.112;11.552;2022-10-16T14:19:47;69.97;;;65.93;;
68812;SDS011;55808;48.112;11.552;2022-10-16T14:25:01;68.67;;;64.47;;
68812;SDS011;55808;48.112;11.552;2022-10-16T14:27:38;66.10;;;63.07;;
68812;SDS011;55808;48.112;11.552;2022-10-16T14:33:02;68.70;;;64.57;;
68812;SDS011;55808;48.112;11.552;2022-10-16T14:35:31;76.00;;;68.23;;
68812;SDS011;55808;48.112;11.552;2022-10-16T14:38:00;73.83;;;66.43;;
68812;SDS011;55808;48.112;11.552;2022-10-16T14:40:28;74.43;;;66.93;;
68812;SDS011;55808;48.112;11.552;2022-10-16T14:42:56;73.97;;;66.27;;
68812;SDS011;55808;48.112;11.552;2022-10-16T14:45:23;68.53;;;63.23;;
68812;SDS011;55808;48.112;11.552;2022-10-16T14:47:52;68.70;;;63.93;;
68812;SDS011;55808;48.112;11.552;2022-10-16T14:50:21;74.00;;;67.10;;
68812;SDS011;55808;48.112;11.552;2022-10-16T14:52:47;68.27;;;63.50;;
68812;SDS011;55808;48.112;11.552;2022-10-16T14:55:16;64.77;;;61.40;;
68812;SDS011;55808;48.112;11.552;2022-10-16T14:57:42;66.83;;;61.97;;
68812;SDS011;55808;48.112;11.552;2022-10-16T15:00:14;64.77;;;61.20;;
68812;SDS011;55808;48.112;11.552;2022-10-16T15:02:46;67.77;;;63.33;;
68812;SDS011;55808;48.112;11.552;2022-10-16T15:07:50;75.40;;;66.83;;
68812;SDS011;55808;48.112;11.552;2022-10-16T15:10:18;66.30;;;60.97;;
68812;SDS011;55808;48.112;11.552;2022-10-16T15:12:45;64.07;;;59.63;;
68812;SDS011;55808;48.112;11.552;2022-10-16T15:17:55;70.67;;;63.00;;
68812;SDS011;55808;48.112;11.552;2022-10-16T15:20:25;77.30;;;65.17;;
68812;SDS011;55808;48.112;11.552;2022-10-16T15:23:01;85.13;;;66.60;;
68812;SDS011;55808;48.112;11.552;2022-10-16T15:25:30;84.47;;;66.80;;
68812;SDS011;55808;48.112;11.552;2022-10-16T15:27:59;78.03;;;64.70;;
68812;SDS011;55808;48.112;11.552;2022-10-16T15:30:25;72.57;;;64.10;;
68812;SDS011;55808;48.112;11.552;2022-10-16T15:32:51;74.80;;;64.50;;
68812;SDS011;55808;48.112;11.552;2022-10-16T15:35:17;64.00;;;60.07;;
68812;SDS011;55808;48.112;11.552;2022-10-16T15:37:43;63.30;;;58.87;;
68812;SDS011;55808;48.112;11.552;2022-10-16T15:40:09;61.90;;;58.33;;
68812;SDS011;55808;48.112;11.552;2022-10-16T15:42:35;62.83;;;58.83;;
68812;SDS011;55808;48.112;11.552;2022-10-16T15:45:01;72.47;;;63.13;;
68812;SDS011;55808;48.112;11.552;2022-10-16T15:47:28;72.10;;;62.60;;
68812;SDS011;55808;48.112;11.552;2022-10-16T15:49:54;86.13;;;64.43;;
68812;SDS011;55808;48.112;11.552;2022-10-16T15:52:20;64.93;;;60.07;;
68812;SDS011;55808;48.112;11.552;2022-10-16T15:54:46;62.40;;;58.77;;
68812;SDS011;55808;48.112;11.552;2022-10-16T15:57:11;62.70;;;58.37;;
68812;SDS011;55808;48.112;11.552;2022-10-16T15:59:37;61.53;;;58.13;;
68812;SDS011;55808;48.112;11.552;2022-10-16T16:02:02;80.43;;;63.20;;
68812;SDS011;55808;48.112;11.552;2022-10-16T16:04:31;77.77;;;63.73;;
68812;SDS011;55808;48.112;11.552;2022-10-16T16:06:57;81.83;;;65.27;;
68812;SDS011;55808;48.112;11.552;2022-10-16T16:09:22;87.30;;;65.40;;
68812;SDS011;55808;48.112;11.552;2022-10-16T16:11:48;64.23;;;59.30;;
68812;SDS011;55808;48.112;11.552;2022-10-16T16:14:16;61.47;;;57.43;;
68812;SDS011;55808;48.112;11.552;2022-10-16T16:16:41;63.33;;;58.77;;
68812;SDS011;55808;48.112;11.552;2022-10-16T16:19:07;61.30;;;57.60;;
68812;SDS011;55808;48.112;11.552;2022-10-16T16:21:34;69.20;;;61.70;;
68812;SDS011;55808;48.112;11.552;2022-10-16T16:24:00;87.73;;;64.00;;
68812;SDS011;55808;48.112;11.552;2022-10-16T16:26:32;89.30;;;63.93;;
68812;SDS011;55808;48.112;11.552;2022-10-16T16:29:01;83.67;;;63.90;;
68812;SDS011;55808;48.112;11.552;2022-10-16T16:31:28;93.00;;;64.50;;
68812;SDS011;55808;48.112;11.552;2022-10-16T16:33:55;76.30;;;62.63;;
68812;SDS011;55808;48.112;11.552;2022-10-16T16:36:22;69.43;;;61.13;;
68812;SDS011;55808;48.112;11.552;2022-10-16T16:38:48;63.13;;;56.87;;
68812;SDS011;55808;48.112;11.552;2022-10-16T16:41:18;62.03;;;57.57;;
68812;SDS011;55808;48.112;11.552;2022-10-16T16:43:45;60.53;;;56.87;;